Reese Station, Ohio
Current Conditions -  °F | °C
As of 10:15 AM on Friday 19 Dec 2014 (Local Time) from KLCK Reporting Station
Overcast Overcast  
Wind Chill: 29°   Ceiling: 2300
Heat Index: 29°   Visibility: 10mi
Dew Point: 22°   Wind: 3mph
Humidity: 77%   Direction: 240°WSW
Pressure: 30.28"   Gusts: NA
Location:  39.8938°N, 82.9624°W
Report Text: KLCK 191515Z AUTO 24003KT 10SM OVC023 M02/M05 A3028 RMK AO2 T10181054
Loading
Personal Weather Stations






























Interactive Weather Map New forecast layout! Learn more

10-Day Weather Forecast

Advertisements
Track Severe Weather on mobile